CheckWX is a tool to help pilots better visualize weather data.  It is not intended as a substitute for an official pre-flight weather briefing.

00:09:22 UTC

KGGP METAR
Logansport / Cass County Airport
Logansport, Indiana, USA
Current

34 mins ago

KGGP 222335Z AUTO 00000KT 10SM CLR M01/M03 A3015 RMK AO2
Observed
Nov-22 @ 23:35 UTC
Visibility
10 SM
Flight Rules
VFR
Cloud Levels
  • Clear skies
Temperature
-1°C / 30°F
Dewpoint
-3°C / 27°F
Humidity
86%
Altimeter
30.15" Hg
Pressure
1021.02 hPa
Previous

54 mins ago

KGGP 222315Z AUTO 00000KT 10SM CLR 00/M03 A3014 RMK AO2
Observed
Nov-22 @ 23:15 UTC
Visibility
10 SM
Flight Rules
VFR
Cloud Levels
  • Clear skies
Temperature
C / 32°F
Dewpoint
-3°C / 27°F
Humidity
80%
Altimeter
30.14" Hg
Pressure
1020.62 hPa
Previous

1 hour ago

KGGP 222255Z AUTO 00000KT 10SM CLR 01/M02 A3014 RMK AO2
Observed
Nov-22 @ 22:55 UTC
Visibility
10 SM
Flight Rules
VFR
Cloud Levels
  • Clear skies
Temperature
C / 34°F
Dewpoint
-2°C / 28°F
Humidity
81%
Altimeter
30.14" Hg
Pressure
1020.62 hPa